Time;durP1;ratioP1;P1;durP2;ratioP2;P2;SDS_P1;SDS_P2;PMS_P1;PMS_P2;Temp;Humidity;BMP_temperature;BMP_pressure;BME280_temperature;BME280_humidity;BME280_pressure;Samples;Min_cycle;Max_cycle;Signal;HPM_P1;HPM_P2
2021/03/16 00:01:54;;;;;;;5.57;4.40;;;4.50;99.90;;;;;;5067433;28;20209;-62
2021/03/16 00:04:19;;;;;;;7.20;4.50;;;4.50;99.90;;;;;;5068715;28;20290;-62
2021/03/16 00:06:45;;;;;;;5.37;4.80;;;4.40;99.90;;;;;;5069415;28;20200;-62
2021/03/16 00:09:10;;;;;;;6.20;4.60;;;4.40;99.90;;;;;;5068220;28;20239;-61
2021/03/16 00:11:36;;;;;;;6.50;4.50;;;4.40;99.90;;;;;;5068828;28;20192;-62
2021/03/16 00:14:01;;;;;;;7.70;4.80;;;4.40;99.90;;;;;;5068689;28;20216;-62
2021/03/16 00:16:27;;;;;;;6.53;5.20;;;4.50;99.90;;;;;;5067829;28;20670;-62
2021/03/16 00:18:53;;;;;;;7.03;4.40;;;4.50;99.90;;;;;;5067732;28;20177;-63
2021/03/16 00:21:19;;;;;;;6.80;4.50;;;4.50;99.90;;;;;;5071632;28;20435;-62
2021/03/16 00:23:44;;;;;;;4.80;4.30;;;4.50;99.90;;;;;;5070410;28;20766;-63
2021/03/16 00:26:10;;;;;;;6.07;4.73;;;4.50;99.90;;;;;;5067318;28;20220;-62
2021/03/16 00:28:35;;;;;;;5.93;4.80;;;4.40;99.90;;;;;;5068932;28;20193;-62
2021/03/16 00:31:01;;;;;;;5.30;4.80;;;4.50;99.90;;;;;;5067959;28;20190;-61
2021/03/16 00:33:27;;;;;;;5.33;4.60;;;4.50;99.90;;;;;;5067919;28;20569;-62
2021/03/16 00:35:53;;;;;;;5.43;4.83;;;4.50;99.90;;;;;;5068152;28;20185;-62
2021/03/16 00:38:19;;;;;;;7.93;4.13;;;4.50;99.90;;;;;;5068634;28;20193;-62
2021/03/16 00:40:44;;;;;;;6.27;4.80;;;4.40;99.90;;;;;;5068841;28;20184;-63
2021/03/16 00:43:10;;;;;;;5.50;4.53;;;4.40;99.90;;;;;;5067959;28;20174;-63
2021/03/16 00:45:35;;;;;;;5.60;4.50;;;4.40;99.90;;;;;;5069006;28;20722;-67
2021/03/16 00:48:01;;;;;;;6.13;4.70;;;4.40;99.90;;;;;;5067960;28;20267;-63
2021/03/16 00:50:26;;;;;;;5.53;4.37;;;4.40;99.90;;;;;;5068902;28;20230;-63
2021/03/16 00:52:52;;;;;;;6.93;4.83;;;4.40;99.90;;;;;;5067330;28;20219;-62
2021/03/16 00:55:17;;;;;;;6.10;5.40;;;4.40;99.90;;;;;;5067556;28;20191;-62
2021/03/16 00:57:43;;;;;;;5.73;4.90;;;4.40;99.90;;;;;;5066389;28;20724;-62
2021/03/16 01:00:10;;;;;;;8.70;4.77;;;4.40;99.90;;;;;;5073344;28;20674;-62
2021/03/16 01:02:35;;;;;;;7.60;5.45;;;4.50;99.90;;;;;;5072006;28;20262;-62
2021/03/16 01:05:01;;;;;;;7.80;5.43;;;4.40;99.90;;;;;;5073145;28;20181;-62
2021/03/16 01:07:27;;;;;;;7.40;5.47;;;4.40;99.90;;;;;;5071454;28;20195;-62
2021/03/16 01:09:53;;;;;;;6.45;5.50;;;4.40;99.90;;;;;;5073009;28;20195;-63
2021/03/16 01:12:18;;;;;;;9.33;6.03;;;4.40;99.90;;;;;;5071710;28;20189;-63
2021/03/16 01:14:44;;;;;;;8.30;5.83;;;4.40;99.90;;;;;;5071406;28;20188;-61
2021/03/16 01:17:09;;;;;;;7.87;5.83;;;4.50;99.90;;;;;;5071551;28;20677;-62
2021/03/16 01:19:35;;;;;;;6.53;5.90;;;4.50;99.90;;;;;;5069340;28;20542;-62
2021/03/16 01:22:00;;;;;;;10.83;6.20;;;4.50;99.90;;;;;;5071732;28;20177;-62
2021/03/16 01:24:26;;;;;;;8.20;5.40;;;4.50;99.90;;;;;;5072117;28;20646;-62
2021/03/16 01:26:52;;;;;;;9.83;6.07;;;4.50;99.90;;;;;;5071906;28;20185;-62
2021/03/16 01:29:17;;;;;;;7.90;5.63;;;4.50;99.90;;;;;;5072076;28;20234;-62
2021/03/16 01:31:43;;;;;;;9.43;6.30;;;4.50;99.90;;;;;;5071424;28;20215;-62
2021/03/16 01:34:08;;;;;;;8.57;6.27;;;4.50;99.90;;;;;;5071530;28;20189;-62
2021/03/16 01:36:34;;;;;;;8.03;5.93;;;4.50;99.90;;;;;;5071469;28;20278;-62
2021/03/16 01:39:00;;;;;;;6.93;5.60;;;4.50;99.90;;;;;;5071451;28;20185;-64
2021/03/16 01:41:25;;;;;;;9.30;6.13;;;4.50;99.90;;;;;;5069939;28;20193;-63
2021/03/16 01:43:51;;;;;;;8.80;6.97;;;4.50;99.90;;;;;;5070753;28;20181;-63
2021/03/16 01:46:19;;;;;;;8.77;6.60;;;4.50;99.90;;;;;;5071688;28;20181;-63
2021/03/16 01:48:45;;;;;;;7.45;6.30;;;4.60;99.90;;;;;;5070491;28;20547;-63
2021/03/16 01:51:11;;;;;;;10.13;6.00;;;4.60;99.90;;;;;;5070343;28;20288;-63
2021/03/16 01:53:41;;;;;;;8.07;6.10;;;4.60;99.90;;;;;;5071986;28;20293;-63
2021/03/16 01:56:07;;;;;;;11.43;6.72;;;4.60;99.90;;;;;;5072052;28;20184;-63
2021/03/16 01:58:33;;;;;;;8.10;6.57;;;4.60;99.90;;;;;;5070055;28;20247;-62
2021/03/16 02:00:58;;;;;;;8.40;6.30;;;4.60;99.90;;;;;;5070744;28;20224;-63
2021/03/16 02:03:27;;;;;;;9.50;6.50;;;4.60;99.90;;;;;;5069405;28;20237;-63
2021/03/16 02:05:53;;;;;;;9.15;7.00;;;4.50;99.90;;;;;;5071755;28;20205;-62
2021/03/16 02:08:39;;;;;;;10.90;6.47;;;4.60;99.90;;;;;;5070693;28;20220;-62
2021/03/16 02:11:28;;;;;;;11.05;6.80;;;4.60;99.90;;;;;;5068691;28;20271;-62
2021/03/16 02:14:00;;;;;;;10.43;7.60;;;4.50;99.90;;;;;;5069176;28;20214;-62
2021/03/16 02:16:42;;;;;;;9.20;6.28;;;4.60;99.90;;;;;;5070470;28;20242;-62
2021/03/16 02:19:22;;;;;;;7.82;6.38;;;4.60;99.90;;;;;;5065368;28;20181;-62
2021/03/16 02:21:49;;;;;;;8.55;5.90;;;4.60;99.90;;;;;;5070914;28;20188;-63
2021/03/16 02:24:38;;;;;;;8.82;6.82;;;4.60;99.90;;;;;;5070075;28;20220;-63
2021/03/16 02:27:13;;;;;;;12.10;7.40;;;4.60;99.90;;;;;;5070527;28;20181;-62
2021/03/16 02:29:47;;;;;;;7.20;6.00;;;4.60;99.90;;;;;;5069462;28;20176;-62
2021/03/16 02:32:21;;;;;;;11.50;7.35;;;4.60;99.90;;;;;;5055436;28;20185;-65
2021/03/16 02:34:54;;;;;;;7.43;6.25;;;4.60;99.90;;;;;;5071444;28;20187;-62
2021/03/16 02:37:20;;;;;;;7.53;6.10;;;4.70;99.90;;;;;;5070394;28;20520;-63
2021/03/16 02:39:48;;;;;;;7.75;5.95;;;4.60;99.90;;;;;;5071274;28;20185;-64
2021/03/16 02:42:15;;;;;;;7.25;5.82;;;4.60;99.90;;;;;;5070663;28;20184;-62
2021/03/16 02:44:41;;;;;;;9.40;6.10;;;4.70;99.90;;;;;;5071277;28;20713;-63
2021/03/16 02:47:07;;;;;;;7.32;6.00;;;4.60;99.90;;;;;;5070356;28;20173;-63
2021/03/16 02:49:38;;;;;;;8.57;5.60;;;4.70;99.90;;;;;;5072085;28;20243;-64
2021/03/16 02:52:04;;;;;;;8.00;5.55;;;4.70;99.90;;;;;;5076385;28;20186;-62
2021/03/16 02:54:31;;;;;;;9.25;5.13;;;4.70;99.90;;;;;;5069968;28;20254;-62
2021/03/16 02:56:58;;;;;;;7.03;5.45;;;4.70;99.90;;;;;;5069541;28;20319;-63
2021/03/16 02:59:25;;;;;;;8.18;6.07;;;4.60;99.90;;;;;;5069460;28;20220;-64
2021/03/16 03:01:51;;;;;;;5.97;4.97;;;4.60;99.90;;;;;;5070262;28;20188;-63
2021/03/16 03:04:18;;;;;;;6.40;5.28;;;4.70;99.90;;;;;;5070680;28;20227;-63
2021/03/16 03:06:44;;;;;;;5.20;4.70;;;4.70;99.90;;;;;;5068594;28;20181;-63
2021/03/16 03:09:11;;;;;;;6.40;5.60;;;4.60;99.90;;;;;;5068970;28;20518;-63
2021/03/16 03:11:37;;;;;;;6.45;4.90;;;4.60;99.90;;;;;;5068720;28;20435;-63
2021/03/16 03:14:04;;;;;;;6.20;5.43;;;4.60;99.90;;;;;;5069869;28;20655;-64
2021/03/16 03:16:30;;;;;;;6.18;5.03;;;4.50;99.90;;;;;;5069033;28;21094;-63
2021/03/16 03:18:56;;;;;;;5.90;4.70;;;4.50;99.90;;;;;;5067540;28;20193;-63
2021/03/16 03:21:35;;;;;;;5.50;4.73;;;4.50;99.90;;;;;;5068727;28;20457;-62
2021/03/16 03:24:07;;;;;;;5.63;4.88;;;4.40;99.90;;;;;;5066669;28;20184;-63
2021/03/16 03:26:43;;;;;;;7.55;5.30;;;4.50;99.90;;;;;;5069102;28;20185;-64
2021/03/16 03:29:11;;;;;;;7.28;5.20;;;4.50;99.90;;;;;;5068855;28;20998;-64
2021/03/16 03:31:41;;;;;;;8.10;5.30;;;4.50;99.90;;;;;;5068059;28;20231;-64
2021/03/16 03:34:08;;;;;;;8.07;6.30;;;4.50;99.90;;;;;;5069750;28;20195;-64
2021/03/16 03:36:39;;;;;;;6.60;5.85;;;4.50;99.90;;;;;;5069255;28;20208;-64
2021/03/16 03:39:06;;;;;;;6.82;5.72;;;4.50;99.90;;;;;;5069529;28;20185;-64
2021/03/16 03:41:34;;;;;;;9.65;6.28;;;4.50;99.90;;;;;;5069889;28;20496;-64
2021/03/16 03:44:01;;;;;;;9.40;6.30;;;4.40;99.90;;;;;;5069019;28;20242;-64
2021/03/16 03:46:30;;;;;;;7.40;5.40;;;4.50;99.90;;;;;;5068570;28;20238;-64
2021/03/16 03:48:57;;;;;;;8.20;6.50;;;4.40;99.90;;;;;;5068877;28;20196;-64
2021/03/16 03:51:24;;;;;;;8.48;6.38;;;4.40;99.90;;;;;;5068503;28;20189;-64
2021/03/16 03:53:50;;;;;;;8.15;7.03;;;4.40;99.90;;;;;;5069712;28;20568;-64
2021/03/16 03:56:16;;;;;;;8.90;6.53;;;4.40;99.90;;;;;;5067289;28;20193;-63
2021/03/16 03:58:43;;;;;;;7.68;5.53;;;4.40;99.90;;;;;;5069174;28;20169;-63
2021/03/16 04:01:09;;;;;;;6.32;5.68;;;4.40;99.90;;;;;;5068763;28;20276;-65
2021/03/16 04:03:36;;;;;;;6.28;5.68;;;4.30;99.90;;;;;;5068133;28;20233;-62
2021/03/16 04:06:03;;;;;;;7.53;5.75;;;4.20;99.90;;;;;;5068457;28;20211;-64
2021/03/16 04:08:30;;;;;;;8.15;6.10;;;4.20;99.90;;;;;;5069771;28;20633;-62
2021/03/16 04:10:57;;;;;;;7.10;5.90;;;4.10;99.90;;;;;;5067436;28;20640;-63
2021/03/16 04:13:23;;;;;;;8.25;6.35;;;4.10;99.90;;;;;;5069156;28;20631;-63
2021/03/16 04:15:50;;;;;;;8.57;5.43;;;4.10;99.90;;;;;;5068835;28;20189;-65
2021/03/16 04:18:15;;;;;;;9.13;6.13;;;4.00;99.90;;;;;;5067880;28;20211;-63
2021/03/16 04:20:43;;;;;;;8.10;5.90;;;4.00;99.90;;;;;;5068685;28;20603;-64
2021/03/16 04:23:09;;;;;;;6.53;5.82;;;4.00;99.90;;;;;;5055469;28;20794;-63
2021/03/16 04:25:35;;;;;;;9.05;5.45;;;3.90;99.90;;;;;;5068907;28;20178;-63
2021/03/16 04:28:00;;;;;;;7.03;5.90;;;3.90;99.90;;;;;;5068542;28;20698;-63
2021/03/16 04:30:26;;;;;;;8.43;6.00;;;3.90;99.90;;;;;;5069170;28;20211;-64
2021/03/16 04:32:52;;;;;;;10.53;6.23;;;3.90;99.90;;;;;;5067190;28;20181;-66
2021/03/16 04:35:17;;;;;;;9.63;6.17;;;3.90;99.90;;;;;;5068685;28;20181;-64
2021/03/16 04:37:43;;;;;;;7.90;6.13;;;4.00;99.90;;;;;;5066163;28;20276;-63
2021/03/16 04:40:09;;;;;;;8.67;6.27;;;4.00;99.90;;;;;;5068979;28;20177;-64
2021/03/16 04:42:35;;;;;;;8.90;6.88;;;4.00;99.90;;;;;;5069246;28;20180;-63
2021/03/16 04:45:00;;;;;;;7.90;5.93;;;4.00;99.90;;;;;;5068442;28;20544;-64
2021/03/16 04:47:26;;;;;;;8.20;5.83;;;4.00;99.90;;;;;;5068016;28;20177;-64
2021/03/16 04:49:51;;;;;;;7.40;5.10;;;4.00;99.90;;;;;;5068437;28;20211;-65
2021/03/16 04:52:17;;;;;;;6.70;5.27;;;4.00;99.90;;;;;;5069885;28;20223;-64
2021/03/16 04:54:42;;;;;;;7.83;5.40;;;4.00;99.90;;;;;;5067947;28;20192;-63
2021/03/16 04:57:08;;;;;;;7.20;5.57;;;4.00;99.90;;;;;;5068647;28;20239;-65
2021/03/16 04:59:33;;;;;;;8.03;5.40;;;3.90;99.90;;;;;;5068954;28;20634;-64
2021/03/16 05:02:00;;;;;;;6.10;5.03;;;3.90;99.90;;;;;;5067531;28;20203;-63
2021/03/16 05:04:26;;;;;;;7.07;5.45;;;3.90;99.90;;;;;;5067327;28;20679;-62
2021/03/16 05:06:51;;;;;;;6.73;5.30;;;4.00;99.90;;;;;;5059010;28;20192;-62
2021/03/16 05:09:17;;;;;;;7.03;4.40;;;4.00;99.90;;;;;;5060153;28;20684;-62
2021/03/16 05:11:42;;;;;;;9.60;5.27;;;3.90;99.90;;;;;;5058900;28;20189;-63
2021/03/16 05:14:08;;;;;;;5.40;4.80;;;3.90;99.90;;;;;;5060093;28;20195;-62
2021/03/16 05:16:33;;;;;;;5.97;4.60;;;3.90;99.90;;;;;;5057494;28;20213;-63
2021/03/16 05:19:01;;;;;;;5.60;4.80;;;3.90;99.90;;;;;;5058326;28;20668;-64
2021/03/16 05:21:27;;;;;;;6.40;4.68;;;3.90;99.90;;;;;;5059394;28;21185;-63
2021/03/16 05:23:53;;;;;;;5.75;4.82;;;3.90;99.90;;;;;;5059279;28;20200;-63
2021/03/16 05:26:18;;;;;;;7.93;4.17;;;3.90;99.90;;;;;;5058583;28;20648;-62
2021/03/16 05:28:44;;;;;;;4.90;4.13;;;3.90;99.90;;;;;;5059970;28;20189;-63
2021/03/16 05:31:09;;;;;;;4.70;3.30;;;3.90;99.90;;;;;;5058657;28;21023;-63
2021/03/16 05:33:35;;;;;;;6.83;4.13;;;3.90;99.90;;;;;;5058226;28;20669;-63
2021/03/16 05:36:00;;;;;;;4.93;3.53;;;3.90;99.90;;;;;;5057960;28;20188;-63
2021/03/16 05:38:26;;;;;;;4.60;3.60;;;3.90;99.90;;;;;;5067743;28;20209;-63
2021/03/16 05:40:51;;;;;;;4.60;3.90;;;3.80;99.90;;;;;;5068751;28;20176;-63
2021/03/16 05:43:18;;;;;;;5.13;3.60;;;3.80;99.90;;;;;;5067904;28;20196;-63
2021/03/16 05:45:44;;;;;;;5.03;3.50;;;3.90;99.90;;;;;;5071349;28;20315;-63
2021/03/16 05:48:11;;;;;;;5.82;4.20;;;3.90;98.50;;;;;;5072641;28;21025;-64
2021/03/16 05:50:37;;;;;;;10.02;3.67;;;3.90;96.00;;;;;;5071841;28;20181;-64
2021/03/16 05:53:04;;;;;;;4.50;3.53;;;3.80;97.70;;;;;;5072317;28;20188;-63
2021/03/16 05:55:30;;;;;;;4.05;3.28;;;3.80;99.90;;;;;;5071538;28;20551;-64
2021/03/16 05:57:55;;;;;;;3.20;2.90;;;3.80;99.90;;;;;;5071356;28;20212;-64
2021/03/16 06:00:21;;;;;;;5.87;3.10;;;3.90;95.90;;;;;;5070674;28;20184;-64
2021/03/16 06:02:49;;;;;;;5.90;3.77;;;3.90;93.80;;;;;;5071598;28;20228;-63
2021/03/16 06:05:14;;;;;;;4.20;3.22;;;3.90;92.90;;;;;;5072075;28;20430;-63
2021/03/16 06:07:40;;;;;;;3.73;3.10;;;3.90;89.70;;;;;;5071252;28;20643;-63
2021/03/16 06:10:06;;;;;;;3.30;3.00;;;3.90;90.60;;;;;;5069797;28;20635;-64
2021/03/16 06:12:35;;;;;;;4.13;3.13;;;3.90;86.00;;;;;;5071843;28;20640;-63
2021/03/16 06:15:12;;;;;;;4.15;3.65;;;3.90;87.40;;;;;;5070484;28;20177;-65
2021/03/16 06:17:54;;;;;;;4.07;3.30;;;3.90;83.30;;;;;;5069614;28;20245;-63
2021/03/16 06:20:31;;;;;;;4.55;3.25;;;4.00;75.90;;;;;;5070528;28;20202;-63
2021/03/16 06:23:09;;;;;;;3.05;2.60;;;3.90;70.20;;;;;;5063083;28;20261;-63
2021/03/16 06:25:37;;;;;;;3.38;2.75;;;3.90;72.90;;;;;;5051829;28;20173;-63
2021/03/16 06:28:05;;;;;;;3.78;2.67;;;3.90;62.10;;;;;;5059808;28;20572;-63
2021/03/16 06:30:30;;;;;;;3.10;2.80;;;3.90;52.80;;;;;;5063455;28;20193;-63
2021/03/16 06:32:56;;;;;;;2.77;2.57;;;4.00;49.10;;;;;;5059661;28;20713;-64
2021/03/16 06:35:23;;;;;;;2.90;2.60;;;3.90;46.90;;;;;;5071110;28;20238;-64
2021/03/16 06:38:00;;;;;;;3.00;2.70;;;4.00;49.40;;;;;;5070738;28;20558;-63
2021/03/16 06:40:30;;;;;;;3.30;3.00;;;4.00;47.70;;;;;;5070137;28;20251;-63
2021/03/16 06:43:07;;;;;;;3.28;2.70;;;4.10;36.90;;;;;;5071380;28;20556;-63
2021/03/16 06:45:35;;;;;;;3.05;2.13;;;4.10;20.20;;;;;;5070453;28;20234;-64
2021/03/16 06:48:18;;;;;;;4.25;2.60;;;4.20;22.60;;;;;;5071364;28;20173;-64
2021/03/16 06:50:44;;;;;;;2.90;2.20;;;4.20;16.70;;;;;;5071222;28;20181;-62
2021/03/16 06:53:33;;;;;;;2.83;2.58;;;4.20;8.30;;;;;;5077571;28;20181;-63
2021/03/16 06:55:59;;;;;;;2.53;2.33;;;4.30;6.90;;;;;;5071740;28;20197;-63
2021/03/16 06:58:33;;;;;;;2.70;2.20;;;4.40;1.00;;;;;;5069150;28;20220;-63
2021/03/16 07:01:10;;;;;;;2.40;2.20;;;4.40;1.00;;;;;;5070755;28;20197;-64
2021/03/16 07:03:37;;;;;;;3.75;2.40;;;4.50;1.00;;;;;;5069527;28;20225;-63
2021/03/16 07:06:21;;;;;;;4.70;2.28;;;4.50;1.00;;;;;;5070538;28;20224;-64
2021/03/16 07:08:48;;;;;;;2.40;2.20;;;4.50;1.00;;;;;;5070904;28;20227;-63
2021/03/16 07:11:15;;;;;;;4.00;2.30;;;4.50;1.00;;;;;;5069014;28;20208;-65
2021/03/16 07:13:42;;;;;;;2.40;2.20;;;4.50;1.00;;;;;;5075645;28;20496;-63
2021/03/16 07:16:09;;;;;;;2.67;2.22;;;4.50;1.00;;;;;;5073300;28;20177;-63
2021/03/16 07:18:39;;;;;;;2.80;2.10;;;4.50;1.00;;;;;;5069267;28;20220;-63
2021/03/16 07:21:07;;;;;;;3.33;2.28;;;4.50;1.00;;;;;;5068561;28;20549;-64
2021/03/16 07:23:50;;;;;;;3.33;2.30;;;4.50;1.00;;;;;;5070344;28;20185;-63
2021/03/16 07:26:17;;;;;;;3.63;2.60;;;4.50;1.00;;;;;;5069933;28;20173;-63
2021/03/16 07:28:46;;;;;;;3.90;2.80;;;4.50;3.70;;;;;;5070521;28;20181;-63
2021/03/16 07:31:13;;;;;;;3.17;2.67;;;4.50;2.20;;;;;;5070250;28;20256;-65
2021/03/16 07:33:38;;;;;;;5.00;2.40;;;4.50;5.80;;;;;;5070504;28;20205;-63
2021/03/16 07:36:04;;;;;;;4.80;3.60;;;4.50;12.00;;;;;;5069734;28;20188;-63
2021/03/16 07:38:30;;;;;;;3.70;3.17;;;4.50;8.70;;;;;;5070344;28;20201;-63
2021/03/16 07:41:00;;;;;;;4.20;3.42;;;4.40;17.70;;;;;;5070021;28;20404;-63
2021/03/16 07:43:42;;;;;;;4.18;3.17;;;4.40;24.20;;;;;;5061909;28;20181;-63
2021/03/16 07:46:19;;;;;;;3.83;3.53;;;4.30;32.20;;;;;;5068669;28;20260;-63
2021/03/16 07:48:47;;;;;;;4.35;3.95;;;4.30;27.90;;;;;;5069020;28;20211;-64
2021/03/16 07:51:16;;;;;;;4.57;3.80;;;4.30;40.40;;;;;;5068611;28;20182;-63
2021/03/16 07:53:41;;;;;;;7.65;5.18;;;4.20;47.10;;;;;;5075631;28;20185;-63
2021/03/16 07:56:13;;;;;;;7.50;5.17;;;4.20;47.70;;;;;;5068208;28;20189;-62
2021/03/16 07:58:45;;;;;;;6.85;5.68;;;4.20;55.50;;;;;;5069018;28;20189;-63
2021/03/16 08:01:12;;;;;;;7.93;5.63;;;4.20;53.30;;;;;;5061495;28;20190;-63
2021/03/16 08:03:37;;;;;;;6.85;5.47;;;4.30;55.10;;;;;;5067717;28;20840;-63
2021/03/16 08:06:03;;;;;;;7.20;5.93;;;4.30;63.90;;;;;;5068305;28;20264;-64
2021/03/16 08:08:42;;;;;;;8.70;6.38;;;4.30;67.80;;;;;;5069142;28;20674;-63
2021/03/16 08:11:12;;;;;;;8.30;6.47;;;4.10;76.50;;;;;;5068417;28;20581;-65
2021/03/16 08:13:40;;;;;;;10.02;6.57;;;4.10;86.20;;;;;;5069110;28;20185;-65
2021/03/16 08:16:15;;;;;;;9.40;6.90;;;4.00;92.30;;;;;;5068751;28;20228;-65
2021/03/16 08:18:41;;;;;;;13.45;7.30;;;4.00;95.30;;;;;;5069142;28;20176;-65
2021/03/16 08:21:11;;;;;;;11.07;6.47;;;3.90;99.30;;;;;;5069065;28;20193;-66
2021/03/16 08:23:37;;;;;;;11.45;6.85;;;3.80;99.90;;;;;;5066840;28;20193;-66
2021/03/16 08:26:05;;;;;;;9.13;7.13;;;3.80;99.90;;;;;;5069235;28;20232;-66
2021/03/16 08:28:32;;;;;;;9.50;6.05;;;3.80;99.90;;;;;;5069406;28;20280;-66
2021/03/16 08:30:58;;;;;;;9.77;6.57;;;3.80;99.90;;;;;;5068887;28;20288;-66
2021/03/16 08:33:25;;;;;;;11.52;7.30;;;3.90;99.90;;;;;;5068877;28;20173;-66
2021/03/16 08:35:55;;;;;;;9.13;7.05;;;3.90;94.30;;;;;;5069047;28;20184;-66
2021/03/16 08:38:23;;;;;;;7.68;6.10;;;3.90;91.20;;;;;;5069104;28;20205;-66
2021/03/16 08:40:50;;;;;;;9.38;6.10;;;4.00;84.90;;;;;;5068940;28;20228;-66
2021/03/16 08:43:16;;;;;;;9.82;5.95;;;4.00;76.90;;;;;;5068965;28;21046;-66
2021/03/16 08:45:44;;;;;;;10.05;5.15;;;4.10;57.20;;;;;;5069183;28;20232;-66
2021/03/16 08:48:10;;;;;;;7.15;3.97;;;4.10;50.90;;;;;;5068655;28;21036;-66
2021/03/16 08:50:36;;;;;;;9.90;5.57;;;4.10;52.50;;;;;;5068924;28;20182;-64
2021/03/16 08:53:03;;;;;;;6.43;5.00;;;4.10;50.50;;;;;;5070728;28;20181;-65
2021/03/16 08:55:29;;;;;;;5.82;5.15;;;4.10;43.80;;;;;;5077661;28;20196;-65
2021/03/16 08:57:58;;;;;;;7.70;4.50;;;4.10;45.00;;;;;;5067591;28;20249;-65
2021/03/16 09:00:30;;;;;;;7.85;4.53;;;4.10;45.50;;;;;;5068071;28;20628;-66
2021/03/16 09:02:55;;;;;;;7.85;4.68;;;4.20;39.50;;;;;;5067925;28;20667;-65
2021/03/16 09:05:25;;;;;;;6.83;4.80;;;4.20;39.00;;;;;;5067322;28;20173;-64
2021/03/16 09:07:55;;;;;;;8.77;4.90;;;4.20;44.70;;;;;;5067226;28;20173;-64
2021/03/16 09:10:21;;;;;;;7.00;5.63;;;4.20;40.50;;;;;;5067603;28;20234;-64
2021/03/16 09:12:48;;;;;;;6.72;4.80;;;4.30;44.30;;;;;;5066387;28;20185;-64
2021/03/16 09:15:26;;;;;;;7.32;4.93;;;4.20;44.90;;;;;;5066535;28;20169;-66
2021/03/16 09:17:57;;;;;;;7.13;5.13;;;4.30;30.50;;;;;;5067574;28;20228;-65
2021/03/16 09:20:25;;;;;;;7.72;5.13;;;4.40;31.50;;;;;;5067889;28;20659;-65
2021/03/16 09:22:56;;;;;;;6.57;5.13;;;4.50;32.00;;;;;;5064326;28;20205;-65
2021/03/16 09:25:27;;;;;;;5.95;4.88;;;4.60;25.20;;;;;;5068864;28;20623;-64
2021/03/16 09:28:00;;;;;;;8.48;4.93;;;4.80;16.60;;;;;;5069387;28;20223;-65
2021/03/16 09:30:39;;;;;;;6.88;5.00;;;5.00;10.80;;;;;;5062627;28;20192;-65
2021/03/16 09:33:07;;;;;;;5.75;5.07;;;5.10;13.60;;;;;;5068899;28;20185;-66
2021/03/16 09:35:34;;;;;;;5.30;4.35;;;5.20;3.60;;;;;;5069572;28;20255;-65
2021/03/16 09:38:05;;;;;;;4.80;4.28;;;5.30;1.00;;;;;;5066670;28;20528;-65
2021/03/16 09:40:42;;;;;;;4.53;4.13;;;5.40;1.00;;;;;;5068967;28;20189;-64
2021/03/16 09:43:20;;;;;;;4.82;4.28;;;5.40;1.00;;;;;;5064971;28;20188;-66
2021/03/16 09:46:02;;;;;;;4.78;4.00;;;5.50;1.00;;;;;;5086075;28;20181;-67
2021/03/16 09:48:28;;;;;;;7.35;4.40;;;5.40;1.00;;;;;;5083407;28;20213;-64
2021/03/16 09:50:56;;;;;;;5.47;4.70;;;5.50;1.00;;;;;;5069012;28;20216;-65
2021/03/16 09:53:22;;;;;;;5.22;3.95;;;5.60;1.00;;;;;;5067838;28;20251;-65
2021/03/16 09:55:59;;;;;;;4.30;3.90;;;5.70;1.00;;;;;;5070456;28;20247;-65
2021/03/16 09:58:29;;;;;;;4.50;3.90;;;5.90;1.00;;;;;;5068208;28;20354;-65
2021/03/16 10:00:56;;;;;;;4.55;3.83;;;6.20;1.00;;;;;;5068997;28;20628;-64
2021/03/16 10:03:22;;;;;;;4.45;4.03;;;6.40;1.00;;;;;;5067266;28;20222;-63
2021/03/16 10:05:49;;;;;;;5.07;3.90;;;6.50;1.00;;;;;;5068906;28;20177;-64
2021/03/16 10:08:25;;;;;;;5.20;4.10;;;6.50;1.00;;;;;;5066554;28;20204;-65
2021/03/16 10:10:51;;;;;;;6.45;5.03;;;6.60;1.00;;;;;;5067506;28;20181;-65
2021/03/16 10:13:27;;;;;;;5.53;5.00;;;6.60;1.00;;;;;;5066567;28;20257;-65
2021/03/16 10:15:54;;;;;;;5.30;4.55;;;6.60;1.00;;;;;;5063811;28;20598;-66
2021/03/16 10:18:24;;;;;;;5.22;4.50;;;6.60;1.00;;;;;;5070083;28;20210;-65
2021/03/16 10:20:51;;;;;;;6.78;5.13;;;6.70;1.00;;;;;;5071141;28;20204;-64
2021/03/16 10:23:19;;;;;;;6.20;4.38;;;6.70;1.00;;;;;;5069538;28;20170;-64
2021/03/16 10:25:54;;;;;;;5.03;4.22;;;6.90;1.00;;;;;;5065070;28;20181;-64
2021/03/16 10:28:34;;;;;;;5.20;4.70;;;7.40;1.00;;;;;;5071049;28;20183;-64
2021/03/16 10:31:31;;;;;;;5.00;4.33;;;7.70;1.00;;;;;;5069040;28;20787;-64
2021/03/16 10:33:57;;;;;;;5.20;4.70;;;7.70;1.00;;;;;;5048128;28;20446;-64
2021/03/16 10:36:27;;;;;;;5.53;4.70;;;7.50;99.90;;;;;;5070038;28;20414;-64
2021/03/16 10:38:52;;;;;;;6.03;4.30;;;7.30;99.90;;;;;;5070949;28;20190;-64
2021/03/16 10:41:19;;;;;;;4.60;4.20;;;7.20;99.90;;;;;;5070925;28;20174;-65
2021/03/16 10:43:45;;;;;;;4.75;4.35;;;7.20;1.00;;;;;;5069391;28;20221;-64
2021/03/16 10:46:11;;;;;;;5.75;4.05;;;7.20;1.00;;;;;;5070730;28;20208;-67
2021/03/16 10:48:37;;;;;;;4.77;4.17;;;7.40;1.00;;;;;;5070306;28;20553;-63
2021/03/16 10:51:03;;;;;;;4.30;4.00;;;7.50;99.90;;;;;;5066715;28;20491;-64
2021/03/16 10:53:29;;;;;;;4.20;3.90;;;7.80;99.90;;;;;;5069973;28;20265;-64
2021/03/16 10:55:55;;;;;;;4.53;4.23;;;8.20;11.30;;;;;;5070441;28;20952;-65
2021/03/16 10:58:20;;;;;;;4.73;4.33;;;8.60;1.00;;;;;;5069882;28;20212;-68
2021/03/16 11:00:46;;;;;;;5.67;3.90;;;9.00;1.00;;;;;;5070133;28;20196;-64
2021/03/16 11:03:11;;;;;;;4.40;4.00;;;9.30;1.00;;;;;;5069486;28;20225;-63
2021/03/16 11:05:37;;;;;;;4.33;4.03;;;9.30;99.90;;;;;;5069616;28;20177;-63
2021/03/16 11:08:03;;;;;;;4.20;3.90;;;9.00;99.90;;;;;;5069982;28;20177;-63
2021/03/16 11:10:28;;;;;;;5.20;4.33;;;8.70;99.90;;;;;;5069709;28;20177;-64
2021/03/16 11:12:54;;;;;;;5.60;4.53;;;8.60;99.90;;;;;;5066934;28;21035;-64
2021/03/16 11:15:20;;;;;;;5.03;4.63;;;8.30;1.00;;;;;;5069690;28;20188;-68
2021/03/16 11:17:45;;;;;;;4.53;4.07;;;8.10;99.90;;;;;;5069119;28;20621;-63
2021/03/16 11:20:12;;;;;;;4.80;4.40;;;7.70;1.00;;;;;;5068197;28;20545;-63
2021/03/16 11:22:38;;;;;;;4.77;4.37;;;7.50;75.10;;;;;;5069260;28;20210;-66
2021/03/16 11:25:05;;;;;;;5.13;4.50;;;7.60;49.60;;;;;;5069991;28;20445;-63
2021/03/16 11:27:30;;;;;;;7.13;3.67;;;7.90;1.00;;;;;;5068376;28;20321;-67
2021/03/16 11:29:56;;;;;;;4.83;4.33;;;8.00;1.00;;;;;;5069971;28;20525;-63
2021/03/16 11:32:21;;;;;;;4.50;4.10;;;7.90;1.00;;;;;;5068039;28;20185;-65
2021/03/16 11:34:47;;;;;;;4.23;3.87;;;7.70;51.90;;;;;;5069998;28;20192;-64
2021/03/16 11:37:13;;;;;;;4.70;4.30;;;7.50;65.20;;;;;;5067495;28;20227;-64
2021/03/16 11:39:38;;;;;;;4.37;3.97;;;7.20;99.90;;;;;;5068765;28;20187;-64
2021/03/16 11:42:05;;;;;;;4.50;4.10;;;7.20;99.90;;;;;;5065276;28;20311;-64
2021/03/16 11:44:30;;;;;;;4.35;4.00;;;7.20;1.00;;;;;;5069642;28;20934;-64
2021/03/16 11:46:56;;;;;;;4.77;4.30;;;7.30;1.00;;;;;;5068758;28;20175;-64
2021/03/16 11:49:21;;;;;;;5.40;4.97;;;7.20;99.90;;;;;;5068231;28;20179;-65
2021/03/16 11:51:47;;;;;;;4.70;4.30;;;6.90;1.00;;;;;;5069048;28;20184;-65
2021/03/16 11:54:12;;;;;;;5.17;4.77;;;6.90;76.60;;;;;;5069225;28;20174;-64
2021/03/16 11:56:38;;;;;;;4.70;4.30;;;6.80;99.90;;;;;;5069522;28;20627;-65
2021/03/16 11:59:04;;;;;;;5.50;4.40;;;6.90;1.00;;;;;;5067148;28;20187;-63
2021/03/16 12:01:29;;;;;;;4.87;4.47;;;6.90;1.00;;;;;;5068388;28;20185;-64
2021/03/16 12:03:55;;;;;;;4.83;4.43;;;7.10;99.90;;;;;;5068070;28;20234;-63
2021/03/16 12:06:20;;;;;;;4.87;4.47;;;7.10;1.00;;;;;;5069290;28;20178;-65
2021/03/16 12:08:46;;;;;;;5.30;4.80;;;7.20;99.90;;;;;;5068240;28;20443;-65
2021/03/16 12:11:11;;;;;;;4.27;3.93;;;7.40;1.00;;;;;;5069082;28;20193;-64
2021/03/16 12:13:37;;;;;;;4.13;3.83;;;7.50;99.90;;;;;;5067980;28;20184;-65
2021/03/16 12:16:03;;;;;;;5.23;4.73;;;7.50;99.90;;;;;;5066879;28;20198;-64
2021/03/16 12:18:28;;;;;;;5.03;4.20;;;7.50;99.90;;;;;;5063119;28;20219;-64
2021/03/16 12:20:54;;;;;;;5.77;4.17;;;7.80;1.00;;;;;;5066514;28;20182;-66
2021/03/16 12:23:19;;;;;;;4.87;3.90;;;8.10;1.00;;;;;;5066685;28;20184;-65
2021/03/16 12:25:50;;;;;;;4.33;4.03;;;8.40;99.90;;;;;;5067090;28;20237;-66
2021/03/16 12:28:16;;;;;;;4.60;4.30;;;8.40;99.90;;;;;;5064524;28;20176;-64
2021/03/16 12:30:41;;;;;;;5.17;3.77;;;8.40;56.30;;;;;;5066536;28;20484;-64
2021/03/16 12:33:07;;;;;;;4.50;4.00;;;8.20;99.90;;;;;;5066246;28;20185;-65
2021/03/16 12:35:33;;;;;;;4.30;4.00;;;8.10;97.20;;;;;;5066412;28;20192;-64
2021/03/16 12:37:58;;;;;;;4.03;3.73;;;8.10;90.50;;;;;;5066390;28;20200;-64
2021/03/16 12:40:24;;;;;;;5.23;3.77;;;8.10;99.90;;;;;;5065927;28;20566;-64
2021/03/16 12:42:49;;;;;;;4.10;3.80;;;8.10;25.70;;;;;;5066889;28;20302;-65
2021/03/16 12:45:15;;;;;;;3.67;3.47;;;8.00;20.50;;;;;;5064609;28;20257;-64
2021/03/16 12:47:40;;;;;;;4.37;4.00;;;8.00;1.00;;;;;;5066925;28;20191;-68
2021/03/16 12:50:07;;;;;;;6.00;4.70;;;8.00;1.00;;;;;;5067104;28;20179;-64
2021/03/16 12:52:32;;;;;;;5.50;5.10;;;8.00;15.10;;;;;;5064725;28;20920;-64
2021/03/16 12:54:58;;;;;;;5.77;5.27;;;7.90;99.90;;;;;;5066408;28;20433;-64
2021/03/16 12:57:23;;;;;;;7.27;5.60;;;7.60;99.90;;;;;;5066093;28;20674;-64
2021/03/16 12:59:49;;;;;;;6.07;5.40;;;7.50;99.90;;;;;;5065098;28;20184;-64
2021/03/16 13:02:15;;;;;;;6.20;5.70;;;7.30;99.90;;;;;;5064713;28;20175;-64